createdAt,value
2022-12-25T00:00:16.660Z,72.95
2022-12-25T00:02:46.664Z,72.65
2022-12-25T00:05:13.023Z,72.69
2022-12-25T00:07:39.311Z,73.09
2022-12-25T00:10:05.584Z,72.69
2022-12-25T00:12:31.876Z,72.93
2022-12-25T00:14:58.161Z,73.29
2022-12-25T00:17:24.425Z,73.39
2022-12-25T00:19:50.723Z,73.27
2022-12-25T00:22:16.977Z,72.95
2022-12-25T00:24:43.255Z,72.70
2022-12-25T00:27:09.504Z,73.18
2022-12-25T00:29:35.740Z,72.73
2022-12-25T00:32:02.079Z,72.55
2022-12-25T00:34:28.394Z,73.27
2022-12-25T00:36:54.646Z,72.80
2022-12-25T00:39:20.895Z,72.88
2022-12-25T00:41:47.151Z,72.69
2022-12-25T00:44:13.422Z,73.12
2022-12-25T00:46:39.720Z,72.72
2022-12-25T00:49:05.992Z,72.33
2022-12-25T00:51:32.285Z,73.01
2022-12-25T00:53:58.555Z,72.74
2022-12-25T00:56:24.814Z,72.91
2022-12-25T00:58:51.100Z,73.10
2022-12-25T01:01:17.444Z,73.25
2022-12-25T01:03:43.813Z,73.36
2022-12-25T01:06:10.084Z,73.24
2022-12-25T01:08:36.444Z,73.67
2022-12-25T01:11:02.690Z,73.47
2022-12-25T01:13:28.966Z,73.20
2022-12-25T01:15:55.258Z,73.16
2022-12-25T01:18:21.564Z,73.90
2022-12-25T01:20:47.833Z,73.45
2022-12-25T01:23:14.100Z,73.32
2022-12-25T01:25:40.362Z,72.96
2022-12-25T01:28:06.618Z,73.14
2022-12-25T01:30:32.885Z,73.51
2022-12-25T01:32:59.176Z,73.13
2022-12-25T01:35:25.452Z,73.19
2022-12-25T01:37:51.743Z,73.40
2022-12-25T01:40:18.018Z,72.86
2022-12-25T01:42:44.274Z,73.01
2022-12-25T01:45:10.532Z,73.30
2022-12-25T01:47:36.792Z,72.90
2022-12-25T01:50:03.059Z,72.92
2022-12-25T01:52:29.309Z,72.72
2022-12-25T01:54:55.569Z,72.83
2022-12-25T01:57:21.864Z,73.08
2022-12-25T01:59:48.121Z,73.00
2022-12-25T02:02:14.465Z,72.49
2022-12-25T02:04:40.850Z,72.81
2022-12-25T02:07:07.132Z,72.61
2022-12-25T02:09:33.396Z,72.71
2022-12-25T02:12:00.274Z,72.37
2022-12-25T02:14:26.738Z,72.26
2022-12-25T02:16:57.266Z,72.43
2022-12-25T02:19:25.172Z,72.18
2022-12-25T02:21:51.419Z,72.27
2022-12-25T02:24:17.674Z,72.24
2022-12-25T02:26:43.928Z,72.28
2022-12-25T02:29:10.206Z,72.55
2022-12-25T02:31:36.488Z,72.11
2022-12-25T02:34:02.768Z,72.54
2022-12-25T02:36:29.049Z,72.06
2022-12-25T02:38:55.298Z,72.69
2022-12-25T02:41:21.562Z,72.68
2022-12-25T02:43:47.825Z,73.04
2022-12-25T02:46:14.100Z,72.60
2022-12-25T02:48:40.393Z,72.37
2022-12-25T02:51:06.659Z,72.04
2022-12-25T02:53:32.920Z,72.33
2022-12-25T02:55:59.180Z,72.32
2022-12-25T02:58:25.467Z,72.47
2022-12-25T03:00:51.789Z,72.03
2022-12-25T03:03:18.147Z,72.28
2022-12-25T03:05:44.440Z,72.43
2022-12-25T03:08:10.712Z,71.93
2022-12-25T03:10:36.993Z,72.20
2022-12-25T03:13:03.262Z,72.32
2022-12-25T03:15:29.536Z,72.77
2022-12-25T03:17:55.814Z,72.71
2022-12-25T03:20:22.086Z,72.05
2022-12-25T03:22:48.359Z,72.26
2022-12-25T03:25:14.620Z,71.95
2022-12-25T03:27:40.869Z,72.08
2022-12-25T03:30:07.134Z,72.32
2022-12-25T03:32:33.423Z,72.21
2022-12-25T03:34:59.688Z,72.42
2022-12-25T03:37:25.938Z,72.52
2022-12-25T03:39:52.233Z,72.44
2022-12-25T03:42:18.484Z,72.35
2022-12-25T03:44:44.758Z,72.46
2022-12-25T03:47:11.118Z,72.69
2022-12-25T03:49:37.373Z,72.61
2022-12-25T03:52:03.642Z,72.84
2022-12-25T03:54:29.917Z,72.56
2022-12-25T03:56:56.181Z,72.67
2022-12-25T03:59:24.036Z,72.56
2022-12-25T04:01:50.569Z,72.81
2022-12-25T04:04:16.852Z,72.72
2022-12-25T04:06:43.111Z,72.88
2022-12-25T04:09:09.372Z,72.39
2022-12-25T04:11:35.627Z,72.44
2022-12-25T04:14:01.893Z,73.24
2022-12-25T04:16:28.247Z,73.11
2022-12-25T04:18:54.548Z,72.82
2022-12-25T04:21:20.839Z,72.46
2022-12-25T04:23:47.101Z,72.59
2022-12-25T04:26:13.372Z,72.60
2022-12-25T04:28:39.619Z,72.25
2022-12-25T04:31:05.927Z,72.41
2022-12-25T04:33:32.235Z,72.36
2022-12-25T04:35:58.488Z,72.40
2022-12-25T04:38:24.759Z,72.16
2022-12-25T04:40:51.101Z,72.79
2022-12-25T04:43:17.378Z,72.86
2022-12-25T04:45:43.644Z,72.72
2022-12-25T04:48:09.907Z,72.51
2022-12-25T04:50:36.164Z,72.71
2022-12-25T04:53:02.459Z,73.46
2022-12-25T04:55:28.744Z,73.00
2022-12-25T04:57:55.028Z,73.02
2022-12-25T05:00:21.315Z,73.20
2022-12-25T05:02:47.758Z,73.10
2022-12-25T05:05:14.115Z,72.96
2022-12-25T05:07:40.378Z,72.92
2022-12-25T05:10:06.638Z,73.33
2022-12-25T05:12:32.892Z,73.18
2022-12-25T05:15:00.271Z,73.17
2022-12-25T05:17:26.579Z,73.21
2022-12-25T05:19:52.843Z,72.75
2022-12-25T05:22:19.115Z,73.14
2022-12-25T05:24:45.383Z,72.94
2022-12-25T05:27:11.646Z,72.36
2022-12-25T05:29:37.899Z,72.77
2022-12-25T05:32:04.155Z,71.87
2022-12-25T05:34:30.425Z,71.72
2022-12-25T05:36:56.703Z,71.85
2022-12-25T05:39:23.031Z,71.58
2022-12-25T05:41:49.332Z,71.88
2022-12-25T05:44:15.624Z,72.29
2022-12-25T05:46:41.951Z,72.80
2022-12-25T05:49:08.297Z,73.43
2022-12-25T05:51:34.575Z,72.91
2022-12-25T05:54:00.829Z,72.79
2022-12-25T05:56:27.089Z,73.39
2022-12-25T05:58:53.485Z,72.89
2022-12-25T06:01:19.817Z,72.90
2022-12-25T06:03:46.141Z,72.78
2022-12-25T06:06:12.423Z,72.83
2022-12-25T06:08:38.690Z,73.15
2022-12-25T06:11:04.940Z,72.09
2022-12-25T06:13:31.212Z,72.41
2022-12-25T06:15:57.512Z,72.78
2022-12-25T06:18:23.789Z,72.85
2022-12-25T06:20:50.058Z,72.58
2022-12-25T06:23:16.380Z,72.44
2022-12-25T06:25:42.665Z,72.91
2022-12-25T06:28:08.931Z,72.79
2022-12-25T06:30:35.209Z,73.59
2022-12-25T06:33:01.472Z,73.85
2022-12-25T06:35:27.713Z,73.82
2022-12-25T06:37:53.963Z,73.51
2022-12-25T06:40:20.212Z,73.82
2022-12-25T06:42:46.481Z,73.73
2022-12-25T06:45:12.730Z,73.17
2022-12-25T06:47:38.991Z,73.42
2022-12-25T06:50:05.259Z,73.52
2022-12-25T06:52:31.530Z,73.55
2022-12-25T06:54:57.777Z,73.47
2022-12-25T06:57:24.025Z,73.66
2022-12-25T06:59:55.103Z,73.71
2022-12-25T07:02:21.867Z,73.30
2022-12-25T07:04:48.216Z,73.40
2022-12-25T07:07:14.494Z,74.13
2022-12-25T07:09:40.750Z,74.02
2022-12-25T07:12:07.013Z,74.02
2022-12-25T07:14:33.288Z,74.30
2022-12-25T07:16:59.643Z,73.60
2022-12-25T07:19:26.053Z,73.64
2022-12-25T07:21:52.322Z,73.70
2022-12-25T07:24:18.601Z,73.59
2022-12-25T07:26:44.845Z,73.69
2022-12-25T07:29:11.124Z,73.69
2022-12-25T07:31:37.445Z,73.89
2022-12-25T07:34:03.705Z,73.68
2022-12-25T07:36:29.957Z,73.29
2022-12-25T07:38:56.208Z,73.62
2022-12-25T07:41:22.489Z,73.01
2022-12-25T07:43:48.761Z,73.19
2022-12-25T07:46:15.120Z,73.13
2022-12-25T07:48:41.438Z,72.48
2022-12-25T07:51:07.690Z,72.96
2022-12-25T07:53:33.947Z,72.81
2022-12-25T07:56:00.198Z,72.16
2022-12-25T07:58:26.481Z,72.67
2022-12-25T08:00:52.862Z,72.51
2022-12-25T08:03:19.438Z,72.68
2022-12-25T08:05:45.879Z,72.24
2022-12-25T08:08:12.140Z,72.77
2022-12-25T08:10:38.402Z,72.21
2022-12-25T08:13:08.992Z,72.24
2022-12-25T08:15:38.710Z,72.22
2022-12-25T08:18:04.974Z,72.28
2022-12-25T08:20:31.239Z,72.71
2022-12-25T08:22:57.517Z,72.69
2022-12-25T08:25:23.772Z,72.42
2022-12-25T08:27:50.045Z,72.67
2022-12-25T08:30:16.297Z,72.22
2022-12-25T08:32:42.561Z,72.46
2022-12-25T08:35:08.809Z,72.36
2022-12-25T08:37:35.086Z,71.70
2022-12-25T08:40:01.399Z,71.24
2022-12-25T08:42:27.674Z,70.91
2022-12-25T08:44:53.943Z,70.86
2022-12-25T08:47:20.210Z,71.44
2022-12-25T08:49:46.489Z,71.23
2022-12-25T08:52:12.930Z,71.61
2022-12-25T08:54:39.249Z,72.10
2022-12-25T08:57:05.569Z,71.94
2022-12-25T08:59:31.849Z,72.24
2022-12-25T09:01:58.223Z,71.73
2022-12-25T09:04:24.511Z,71.49
2022-12-25T09:06:50.784Z,71.86
2022-12-25T09:09:17.112Z,71.05
2022-12-25T09:11:43.379Z,71.16
2022-12-25T09:14:09.654Z,71.53
2022-12-25T09:16:35.913Z,71.48
2022-12-25T09:19:02.254Z,71.47
2022-12-25T09:21:28.516Z,71.41
2022-12-25T09:23:54.800Z,71.21
2022-12-25T09:26:21.038Z,71.60
2022-12-25T09:28:52.072Z,71.51
2022-12-25T09:31:19.008Z,71.45
2022-12-25T09:33:45.364Z,71.23
2022-12-25T09:36:11.639Z,71.94
2022-12-25T09:38:37.952Z,71.88
2022-12-25T09:41:04.193Z,71.28
2022-12-25T09:43:30.440Z,71.20
2022-12-25T09:45:56.775Z,70.96
2022-12-25T09:48:23.050Z,71.65
2022-12-25T09:50:49.328Z,71.28
2022-12-25T09:53:15.596Z,71.12
2022-12-25T09:55:41.868Z,70.86
2022-12-25T09:58:08.138Z,71.01
2022-12-25T10:00:34.408Z,71.57
2022-12-25T10:03:01.043Z,71.87
2022-12-25T10:05:27.485Z,71.72
2022-12-25T10:07:53.744Z,71.18
2022-12-25T10:10:19.991Z,71.84
2022-12-25T10:12:46.236Z,71.76
2022-12-25T10:15:12.485Z,71.77
2022-12-25T10:17:38.732Z,71.28
2022-12-25T10:20:04.978Z,71.33
2022-12-25T10:22:31.247Z,70.36
2022-12-25T10:24:57.529Z,70.48
2022-12-25T10:27:23.788Z,70.28
2022-12-25T10:29:50.053Z,70.49
2022-12-25T10:32:16.327Z,70.23
2022-12-25T10:34:42.576Z,71.45
2022-12-25T10:37:08.855Z,71.53
2022-12-25T10:39:36.708Z,70.66
2022-12-25T10:42:04.781Z,70.57
2022-12-25T10:44:31.060Z,70.30
2022-12-25T10:46:57.413Z,70.76
2022-12-25T10:49:23.692Z,71.55
2022-12-25T10:51:49.941Z,70.84
2022-12-25T10:54:16.207Z,70.32
2022-12-25T10:56:42.469Z,70.84
2022-12-25T10:59:08.720Z,69.45
2022-12-25T11:01:35.131Z,70.28
2022-12-25T11:04:01.558Z,70.54
2022-12-25T11:06:27.877Z,70.97
2022-12-25T11:08:54.141Z,70.43
2022-12-25T11:11:20.393Z,70.88
2022-12-25T11:13:46.665Z,69.75
2022-12-25T11:16:12.941Z,69.43
2022-12-25T11:18:39.246Z,69.63
2022-12-25T11:21:05.510Z,69.32
2022-12-25T11:23:31.789Z,69.76
2022-12-25T11:25:58.042Z,69.85
2022-12-25T11:28:24.293Z,70.34
2022-12-25T11:30:50.551Z,70.68
2022-12-25T11:33:16.800Z,70.81
2022-12-25T11:35:43.067Z,70.69
2022-12-25T11:38:09.344Z,71.11
2022-12-25T11:40:35.612Z,70.71
2022-12-25T11:43:07.595Z,69.62
2022-12-25T11:45:34.531Z,70.07
2022-12-25T11:48:00.788Z,70.12
2022-12-25T11:50:27.054Z,71.67
2022-12-25T11:52:53.372Z,71.25
2022-12-25T11:55:19.670Z,71.69
2022-12-25T11:57:45.921Z,71.40
2022-12-25T12:00:12.182Z,71.75
2022-12-25T12:02:38.642Z,72.32
2022-12-25T12:05:05.037Z,72.04
2022-12-25T12:07:31.292Z,71.41
2022-12-25T12:09:57.532Z,71.28
2022-12-25T12:12:23.800Z,70.84
2022-12-25T12:14:50.074Z,71.20
2022-12-25T12:17:16.331Z,70.42
2022-12-25T12:19:42.579Z,70.57
2022-12-25T12:22:08.845Z,69.51
2022-12-25T12:24:35.118Z,69.75
2022-12-25T12:27:01.384Z,70.08
2022-12-25T12:29:27.635Z,70.08
2022-12-25T12:31:53.960Z,70.60
2022-12-25T12:34:20.252Z,71.20
2022-12-25T12:36:46.520Z,70.68
2022-12-25T12:39:12.802Z,71.05
2022-12-25T12:41:39.053Z,70.45
2022-12-25T12:44:05.330Z,70.27
2022-12-25T12:46:31.823Z,70.15
2022-12-25T12:48:58.257Z,69.71
2022-12-25T12:51:24.541Z,70.92
2022-12-25T12:53:50.789Z,70.81
2022-12-25T12:56:17.066Z,70.02
2022-12-25T12:58:43.316Z,69.69
2022-12-25T13:01:09.565Z,70.10
2022-12-25T13:03:35.846Z,70.37
2022-12-25T13:06:02.105Z,70.94
2022-12-25T13:08:28.371Z,70.51
2022-12-25T13:10:54.647Z,69.97
2022-12-25T13:13:20.913Z,70.55
2022-12-25T13:15:47.167Z,69.95
2022-12-25T13:18:13.417Z,70.23
2022-12-25T13:20:39.689Z,70.13
2022-12-25T13:23:05.950Z,70.55
2022-12-25T13:25:32.215Z,69.68
2022-12-25T13:27:58.520Z,70.60
2022-12-25T13:30:24.806Z,70.53
2022-12-25T13:32:51.138Z,70.38
2022-12-25T13:35:17.510Z,70.93
2022-12-25T13:37:43.779Z,70.54
2022-12-25T13:40:10.031Z,69.93
2022-12-25T13:42:36.318Z,69.51
2022-12-25T13:45:02.614Z,69.92
2022-12-25T13:47:28.879Z,70.16
2022-12-25T13:49:55.123Z,69.37
2022-12-25T13:52:21.390Z,69.45
2022-12-25T13:54:47.646Z,69.87
2022-12-25T13:57:13.904Z,69.36
2022-12-25T13:59:40.178Z,69.93
2022-12-25T14:02:06.610Z,69.72
2022-12-25T14:04:33.005Z,69.57
2022-12-25T14:06:59.298Z,69.06
2022-12-25T14:09:25.578Z,69.05
2022-12-25T14:11:51.843Z,68.90
2022-12-25T14:14:18.121Z,69.20
2022-12-25T14:16:44.448Z,69.85
2022-12-25T14:19:10.733Z,69.33
2022-12-25T14:21:37.033Z,69.12
2022-12-25T14:24:03.315Z,69.38
2022-12-25T14:26:29.651Z,68.86
2022-12-25T14:28:55.957Z,69.28
2022-12-25T14:31:22.359Z,69.36
2022-12-25T14:33:48.677Z,68.97
2022-12-25T14:36:15.001Z,68.78
2022-12-25T14:38:41.261Z,69.30
2022-12-25T14:41:07.533Z,69.44
2022-12-25T14:43:33.852Z,69.14
2022-12-25T14:46:00.254Z,69.13
2022-12-25T14:48:26.563Z,68.27
2022-12-25T14:50:52.874Z,69.02
2022-12-25T14:53:19.154Z,69.12
2022-12-25T14:55:45.425Z,68.86
2022-12-25T14:58:11.673Z,68.65
2022-12-25T15:00:37.955Z,69.41
2022-12-25T15:03:04.336Z,69.58
2022-12-25T15:05:30.671Z,70.08
2022-12-25T15:07:56.913Z,69.54
2022-12-25T15:10:59.085Z,68.84
2022-12-25T15:13:09.408Z,68.69
2022-12-25T15:15:35.722Z,69.55
2022-12-25T15:18:02.040Z,69.85
2022-12-25T15:20:28.313Z,69.85
2022-12-25T15:23:18.410Z,69.43
2022-12-25T15:25:40.826Z,70.13
2022-12-25T15:28:12.770Z,69.93
2022-12-25T15:30:39.455Z,70.44
2022-12-25T15:33:05.908Z,70.17
2022-12-25T15:35:32.161Z,69.09
2022-12-25T15:37:58.419Z,68.18
2022-12-25T15:40:24.690Z,68.87
2022-12-25T15:42:50.943Z,69.08
2022-12-25T15:45:17.214Z,68.60
2022-12-25T15:47:43.560Z,68.99
2022-12-25T15:50:09.833Z,69.39
2022-12-25T15:52:36.098Z,69.93
2022-12-25T15:55:02.369Z,69.19
2022-12-25T15:57:28.637Z,69.85
2022-12-25T15:59:54.892Z,69.38
2022-12-25T16:02:21.522Z,69.37
2022-12-25T16:04:47.936Z,69.61
2022-12-25T16:07:14.203Z,70.10
2022-12-25T16:09:40.490Z,69.99
2022-12-25T16:12:06.771Z,69.84
2022-12-25T16:14:33.034Z,68.92
2022-12-25T16:16:59.286Z,69.80
2022-12-25T16:19:25.554Z,69.62
2022-12-25T16:21:51.806Z,69.37
2022-12-25T16:24:18.085Z,70.05
2022-12-25T16:26:44.372Z,69.72
2022-12-25T16:29:10.682Z,68.78
2022-12-25T16:31:37.038Z,69.32
2022-12-25T16:34:03.340Z,69.58
2022-12-25T16:36:29.622Z,68.90
2022-12-25T16:38:55.897Z,68.64
2022-12-25T16:41:22.159Z,69.06
2022-12-25T16:43:48.426Z,69.44
2022-12-25T16:46:14.714Z,69.13
2022-12-25T16:48:41.010Z,69.62
2022-12-25T16:51:07.282Z,70.63
2022-12-25T16:53:33.522Z,69.82
2022-12-25T16:55:59.801Z,69.53
2022-12-25T16:58:26.083Z,69.61
2022-12-25T17:00:52.356Z,69.45
2022-12-25T17:03:18.737Z,69.50
2022-12-25T17:05:45.116Z,70.09
2022-12-25T17:08:11.361Z,69.79
2022-12-25T17:10:37.626Z,69.26
2022-12-25T17:13:03.892Z,69.55
2022-12-25T17:15:30.180Z,70.06
2022-12-25T17:17:56.423Z,70.47
2022-12-25T17:20:22.688Z,70.09
2022-12-25T17:22:48.947Z,70.16
2022-12-25T17:25:15.196Z,69.76
2022-12-25T17:27:41.457Z,69.51
2022-12-25T17:30:07.712Z,69.91
2022-12-25T17:32:33.983Z,69.38
2022-12-25T17:35:00.231Z,69.30
2022-12-25T17:37:26.481Z,69.38
2022-12-25T17:39:52.748Z,69.34
2022-12-25T17:42:19.022Z,69.36
2022-12-25T17:44:45.266Z,69.04
2022-12-25T17:47:11.563Z,68.71
2022-12-25T17:49:37.855Z,68.41
2022-12-25T17:52:04.108Z,68.07
2022-12-25T17:54:30.370Z,68.25
2022-12-25T17:56:56.636Z,68.91
2022-12-25T17:59:22.902Z,68.67
2022-12-25T18:01:49.388Z,68.87
2022-12-25T18:04:15.800Z,68.55
2022-12-25T18:06:42.237Z,67.97
2022-12-25T18:09:08.493Z,68.43
2022-12-25T18:11:36.815Z,68.92
2022-12-25T18:14:03.375Z,69.30
2022-12-25T18:16:29.641Z,68.32
2022-12-25T18:18:55.909Z,68.87
2022-12-25T18:21:22.253Z,68.74
2022-12-25T18:23:48.566Z,68.37
2022-12-25T18:26:14.804Z,68.23
2022-12-25T18:28:41.061Z,68.15
2022-12-25T18:31:07.351Z,68.73
2022-12-25T18:33:33.653Z,69.13
2022-12-25T18:35:59.914Z,69.36
2022-12-25T18:38:26.565Z,69.49
2022-12-25T18:40:52.839Z,69.42
2022-12-25T18:43:19.096Z,69.43
2022-12-25T18:45:45.414Z,69.36
2022-12-25T18:48:11.746Z,69.15
2022-12-25T18:50:37.982Z,69.28
2022-12-25T18:53:04.230Z,69.29
2022-12-25T18:55:30.474Z,69.40
2022-12-25T18:57:56.749Z,69.33
2022-12-25T19:00:23.020Z,69.19
2022-12-25T19:02:49.543Z,69.64
2022-12-25T19:05:15.964Z,69.37
2022-12-25T19:07:42.234Z,68.82
2022-12-25T19:10:08.532Z,69.07
2022-12-25T19:12:34.774Z,69.56
2022-12-25T19:15:01.032Z,69.91
2022-12-25T19:17:31.882Z,69.45
2022-12-25T19:19:58.664Z,70.02
2022-12-25T19:22:24.943Z,69.58
2022-12-25T19:24:51.187Z,69.71
2022-12-25T19:27:17.441Z,69.78
2022-12-25T19:29:43.708Z,69.89
2022-12-25T19:32:10.097Z,69.88
2022-12-25T19:34:36.469Z,69.92
2022-12-25T19:37:02.740Z,69.69
2022-12-25T19:39:28.981Z,69.39
2022-12-25T19:41:55.221Z,69.68
2022-12-25T19:44:21.480Z,69.71
2022-12-25T19:46:47.721Z,69.64
2022-12-25T19:49:13.958Z,70.09
2022-12-25T19:51:40.220Z,69.43
2022-12-25T19:54:06.494Z,70.11
2022-12-25T19:56:32.763Z,70.17
2022-12-25T19:58:59.009Z,70.12
2022-12-25T20:01:25.392Z,68.89
2022-12-25T20:03:51.827Z,68.97
2022-12-25T20:06:18.092Z,67.81
2022-12-25T20:08:44.354Z,67.96
2022-12-25T20:11:10.600Z,68.33
2022-12-25T20:13:36.860Z,69.03
2022-12-25T20:16:03.132Z,69.21
2022-12-25T20:18:29.455Z,69.88
2022-12-25T20:20:55.706Z,70.31
2022-12-25T20:23:21.952Z,69.90
2022-12-25T20:25:48.236Z,69.58
2022-12-25T20:28:14.490Z,70.00
2022-12-25T20:30:40.735Z,70.22
2022-12-25T20:33:07.025Z,70.39
2022-12-25T20:35:33.293Z,69.99
2022-12-25T20:37:59.602Z,69.95
2022-12-25T20:40:25.851Z,70.12
2022-12-25T20:42:52.108Z,70.13
2022-12-25T20:45:18.467Z,70.27
2022-12-25T20:47:44.711Z,69.94
2022-12-25T20:50:10.950Z,69.72
2022-12-25T20:52:37.219Z,69.91
2022-12-25T20:55:03.512Z,69.81
2022-12-25T20:57:29.781Z,69.54
2022-12-25T20:59:56.040Z,70.00
2022-12-25T21:02:34.396Z,70.15
2022-12-25T21:05:01.507Z,69.81
2022-12-25T21:07:27.775Z,69.78
2022-12-25T21:09:54.030Z,70.11
2022-12-25T21:12:20.292Z,70.47
2022-12-25T21:14:46.550Z,70.02
2022-12-25T21:17:12.938Z,70.33
2022-12-25T21:19:39.278Z,70.24
2022-12-25T21:22:05.559Z,70.09
2022-12-25T21:24:31.816Z,69.72
2022-12-25T21:26:58.185Z,69.87
2022-12-25T21:29:24.482Z,69.79
2022-12-25T21:31:50.764Z,69.35
2022-12-25T21:34:17.031Z,69.67
2022-12-25T21:36:43.288Z,69.25
2022-12-25T21:39:09.544Z,69.88
2022-12-25T21:41:35.784Z,69.90
2022-12-25T21:44:02.052Z,70.16
2022-12-25T21:46:28.474Z,69.78
2022-12-25T21:48:54.875Z,69.63
2022-12-25T21:51:21.169Z,69.57
2022-12-25T21:53:47.433Z,69.79
2022-12-25T21:56:13.684Z,69.91
2022-12-25T21:58:39.942Z,70.04
2022-12-25T22:01:06.218Z,70.28
2022-12-25T22:03:32.579Z,70.08
2022-12-25T22:05:58.859Z,69.82
2022-12-25T22:08:25.136Z,69.52
2022-12-25T22:10:51.405Z,68.80
2022-12-25T22:13:17.683Z,69.11
2022-12-25T22:15:44.014Z,68.80
2022-12-25T22:18:10.304Z,68.12
2022-12-25T22:20:36.564Z,68.95
2022-12-25T22:23:02.871Z,69.67
2022-12-25T22:25:29.147Z,69.94
2022-12-25T22:27:55.463Z,70.31
2022-12-25T22:30:21.860Z,70.58
2022-12-25T22:32:48.170Z,70.44
2022-12-25T22:35:14.463Z,69.45
2022-12-25T22:37:40.781Z,69.33
2022-12-25T22:40:07.016Z,69.39
2022-12-25T22:42:33.270Z,69.94
2022-12-25T22:44:59.528Z,70.03
2022-12-25T22:47:25.807Z,69.01
2022-12-25T22:49:52.048Z,68.83
2022-12-25T22:52:18.368Z,68.79
2022-12-25T22:54:44.648Z,68.40
2022-12-25T22:57:10.918Z,68.88
2022-12-25T22:59:37.179Z,69.03
2022-12-25T23:02:03.512Z,69.27
2022-12-25T23:04:29.881Z,68.70
2022-12-25T23:06:56.137Z,68.80
2022-12-25T23:09:24.896Z,69.18
2022-12-25T23:11:51.279Z,68.72
2022-12-25T23:14:17.531Z,69.14
2022-12-25T23:16:43.793Z,69.31
2022-12-25T23:19:10.088Z,69.29
2022-12-25T23:21:36.343Z,69.90
2022-12-25T23:24:02.581Z,69.97
2022-12-25T23:26:28.862Z,70.01
2022-12-25T23:28:55.128Z,69.26
2022-12-25T23:31:22.062Z,69.61
2022-12-25T23:33:48.377Z,69.14
2022-12-25T23:36:14.609Z,70.04
2022-12-25T23:38:40.959Z,70.26
2022-12-25T23:41:07.259Z,70.12
2022-12-25T23:43:33.560Z,69.55
2022-12-25T23:45:59.963Z,69.95
2022-12-25T23:48:26.233Z,70.74
2022-12-25T23:50:52.494Z,70.18
2022-12-25T23:53:18.761Z,69.64
2022-12-25T23:55:47.563Z,70.23
2022-12-25T23:58:17.856Z,70.17
